createdAt,value
2022-10-07T00:00:31.112Z,99.90
2022-10-07T00:02:58.076Z,99.90
2022-10-07T00:05:25.068Z,99.90
2022-10-07T00:07:51.995Z,99.90
2022-10-07T00:10:18.900Z,99.90
2022-10-07T00:12:45.879Z,99.90
2022-10-07T00:15:13.388Z,99.90
2022-10-07T00:17:40.378Z,99.90
2022-10-07T00:20:07.727Z,99.90
2022-10-07T00:22:34.694Z,99.90
2022-10-07T00:25:01.744Z,99.90
2022-10-07T00:27:28.749Z,99.90
2022-10-07T00:29:55.712Z,99.90
2022-10-07T00:32:22.759Z,99.90
2022-10-07T00:34:49.748Z,99.90
2022-10-07T00:37:16.705Z,99.90
2022-10-07T00:39:44.043Z,99.90
2022-10-07T00:42:12.840Z,99.90
2022-10-07T00:44:48.715Z,99.90
2022-10-07T00:47:19.029Z,99.90
2022-10-07T00:49:51.325Z,99.90
2022-10-07T00:52:20.541Z,99.90
2022-10-07T00:54:50.295Z,99.90
2022-10-07T00:57:17.341Z,99.90
2022-10-07T00:59:44.379Z,99.90
2022-10-07T01:02:11.411Z,99.90
2022-10-07T01:04:38.854Z,99.90
2022-10-07T01:07:06.390Z,99.90
2022-10-07T01:09:34.239Z,99.90
2022-10-07T01:12:07.826Z,99.90
2022-10-07T01:14:53.729Z,99.90
2022-10-07T01:17:20.798Z,99.90
2022-10-07T01:19:50.818Z,99.90
2022-10-07T01:22:17.888Z,99.90
2022-10-07T01:24:53.322Z,99.90
2022-10-07T01:27:22.256Z,99.90
2022-10-07T01:29:58.677Z,99.90
2022-10-07T01:32:28.460Z,99.90
2022-10-07T01:34:55.983Z,99.90
2022-10-07T01:37:24.229Z,99.90
2022-10-07T01:39:53.733Z,99.90
2022-10-07T01:42:21.298Z,99.90
2022-10-07T01:44:52.843Z,99.90
2022-10-07T01:47:19.846Z,99.90
2022-10-07T01:49:47.968Z,99.90
2022-10-07T01:52:26.488Z,99.90
2022-10-07T01:55:07.353Z,99.90
2022-10-07T01:57:40.937Z,99.90
2022-10-07T02:00:10.257Z,99.90
2022-10-07T02:02:48.921Z,99.90
2022-10-07T02:05:21.034Z,99.90
2022-10-07T02:07:57.198Z,99.90
2022-10-07T02:10:56.678Z,99.90
2022-10-07T02:13:31.228Z,99.90
2022-10-07T02:16:10.044Z,99.90
2022-10-07T02:18:38.450Z,99.90
2022-10-07T02:21:07.060Z,99.90
2022-10-07T02:23:37.640Z,99.90
2022-10-07T02:26:05.262Z,99.90
2022-10-07T02:28:33.379Z,99.90
2022-10-07T02:31:02.835Z,99.90
2022-10-07T02:33:32.402Z,99.90
2022-10-07T02:36:03.723Z,99.90
2022-10-07T02:38:30.894Z,99.90
2022-10-07T02:41:12.446Z,99.90
2022-10-07T02:43:48.788Z,99.90
2022-10-07T02:46:20.366Z,99.90
2022-10-07T02:48:54.257Z,99.90
2022-10-07T02:51:22.990Z,99.90
2022-10-07T02:53:53.257Z,99.90
2022-10-07T02:56:22.442Z,99.90
2022-10-07T02:58:50.075Z,99.90
2022-10-07T03:01:22.895Z,99.90
2022-10-07T03:03:50.833Z,99.90
2022-10-07T03:06:23.150Z,99.90
2022-10-07T03:08:51.644Z,99.90
2022-10-07T03:11:18.781Z,99.90
2022-10-07T03:13:47.125Z,99.90
2022-10-07T03:16:14.118Z,99.90
2022-10-07T03:18:41.449Z,99.90
2022-10-07T03:21:18.388Z,99.90
2022-10-07T03:23:50.233Z,99.90
2022-10-07T03:26:19.494Z,99.90
2022-10-07T03:28:47.646Z,99.90
2022-10-07T03:31:15.650Z,99.90
2022-10-07T03:33:47.478Z,99.90
2022-10-07T03:36:14.651Z,99.90
2022-10-07T03:38:44.585Z,99.90
2022-10-07T03:41:12.816Z,99.90
2022-10-07T03:43:40.120Z,99.90
2022-10-07T03:46:08.955Z,99.90
2022-10-07T03:48:37.823Z,99.90
2022-10-07T03:51:04.813Z,99.90
2022-10-07T03:53:34.477Z,99.90
2022-10-07T03:56:02.876Z,99.90
2022-10-07T03:58:31.463Z,99.90
2022-10-07T04:01:10.290Z,99.90
2022-10-07T04:03:39.664Z,99.90
2022-10-07T04:06:07.855Z,99.90
2022-10-07T04:08:35.452Z,99.90
2022-10-07T04:11:03.992Z,99.90
2022-10-07T04:13:32.322Z,99.90
2022-10-07T04:16:05.268Z,99.90
2022-10-07T04:18:32.557Z,99.90
2022-10-07T04:21:00.473Z,99.90
2022-10-07T04:23:27.824Z,99.90
2022-10-07T04:25:55.402Z,99.90
2022-10-07T04:28:26.124Z,99.90
2022-10-07T04:31:03.468Z,99.90
2022-10-07T04:33:34.745Z,99.90
2022-10-07T04:36:05.797Z,99.90
2022-10-07T04:38:33.512Z,99.90
2022-10-07T04:41:05.685Z,99.90
2022-10-07T04:43:36.055Z,99.90
2022-10-07T04:46:11.674Z,99.90
2022-10-07T04:48:43.739Z,99.90
2022-10-07T04:51:10.997Z,99.90
2022-10-07T04:53:39.825Z,99.90
2022-10-07T04:56:08.985Z,99.90
2022-10-07T04:58:36.181Z,99.90
2022-10-07T05:01:07.665Z,99.90
2022-10-07T05:03:36.129Z,99.90
2022-10-07T05:06:05.723Z,99.90
2022-10-07T05:08:33.965Z,99.90
2022-10-07T05:11:01.769Z,99.90
2022-10-07T05:13:34.397Z,99.90
2022-10-07T05:16:02.906Z,99.90
2022-10-07T05:18:30.694Z,99.90
2022-10-07T05:21:06.041Z,99.90
2022-10-07T05:23:36.893Z,99.90
2022-10-07T05:26:10.606Z,99.90
2022-10-07T05:28:41.970Z,99.90
2022-10-07T05:31:12.354Z,99.90
2022-10-07T05:33:40.867Z,99.90
2022-10-07T05:36:08.972Z,99.90
2022-10-07T05:38:37.324Z,99.90
2022-10-07T05:41:06.412Z,99.90
2022-10-07T05:43:36.913Z,99.90
2022-10-07T05:46:16.133Z,99.90
2022-10-07T05:48:48.709Z,99.90
2022-10-07T05:51:16.534Z,99.90
2022-10-07T05:53:43.594Z,99.90
2022-10-07T05:56:12.765Z,99.90
2022-10-07T05:58:39.966Z,99.90
2022-10-07T06:01:14.260Z,99.90
2022-10-07T06:03:43.278Z,99.90
2022-10-07T06:06:10.791Z,99.90
2022-10-07T06:08:37.806Z,99.90
2022-10-07T06:11:24.331Z,99.90
2022-10-07T06:13:52.919Z,99.90
2022-10-07T06:16:20.390Z,99.90
2022-10-07T06:18:50.653Z,99.90
2022-10-07T06:21:20.631Z,99.90
2022-10-07T06:23:53.983Z,99.90
2022-10-07T06:26:25.544Z,99.90
2022-10-07T06:28:54.361Z,96.10
2022-10-07T06:31:25.986Z,92.70
2022-10-07T06:33:58.672Z,83.80
2022-10-07T06:36:26.141Z,84.30
2022-10-07T06:38:55.684Z,80.60
2022-10-07T06:41:28.009Z,76.80
2022-10-07T06:44:16.358Z,74.90
2022-10-07T06:46:45.057Z,72.70
2022-10-07T06:49:12.247Z,76.30
2022-10-07T06:51:39.379Z,70.50
2022-10-07T06:54:06.302Z,74.00
2022-10-07T06:56:33.988Z,74.90
2022-10-07T06:59:02.034Z,81.90
2022-10-07T07:01:37.157Z,84.30
2022-10-07T07:04:04.411Z,81.80
2022-10-07T07:06:35.494Z,89.30
2022-10-07T07:09:04.753Z,85.60
2022-10-07T07:11:37.011Z,75.30
2022-10-07T07:14:15.284Z,72.30
2022-10-07T07:16:47.746Z,77.60
2022-10-07T07:19:15.090Z,79.10
2022-10-07T07:21:45.540Z,66.80
2022-10-07T07:24:17.217Z,69.70
2022-10-07T07:26:45.012Z,69.20
2022-10-07T07:29:13.026Z,66.40
2022-10-07T07:31:45.263Z,64.40
2022-10-07T07:34:14.297Z,63.20
2022-10-07T07:36:47.359Z,59.20
2022-10-07T07:39:17.413Z,57.40
2022-10-07T07:41:50.873Z,57.80
2022-10-07T07:44:20.381Z,56.10
2022-10-07T07:46:51.241Z,55.90
2022-10-07T07:49:21.078Z,50.30
2022-10-07T07:51:48.292Z,50.40
2022-10-07T07:54:21.492Z,49.60
2022-10-07T07:56:49.464Z,46.90
2022-10-07T07:59:18.796Z,50.20
2022-10-07T08:01:48.176Z,49.80
2022-10-07T08:04:16.665Z,49.70
2022-10-07T08:06:44.096Z,45.80
2022-10-07T08:09:12.882Z,45.60
2022-10-07T08:11:45.782Z,48.30
2022-10-07T08:14:16.343Z,44.50
2022-10-07T08:16:45.062Z,46.50
2022-10-07T08:19:12.544Z,49.50
2022-10-07T08:21:39.854Z,49.10
2022-10-07T08:24:11.703Z,50.30
2022-10-07T08:26:39.896Z,49.80
2022-10-07T08:29:09.675Z,53.80
2022-10-07T08:31:37.406Z,53.70
2022-10-07T08:34:05.264Z,56.80
2022-10-07T08:36:32.956Z,55.10
2022-10-07T08:39:00.705Z,61.70
2022-10-07T08:41:32.982Z,59.90
2022-10-07T08:44:18.360Z,62.00
2022-10-07T08:46:48.234Z,66.20
2022-10-07T08:49:17.715Z,66.50
2022-10-07T08:51:44.830Z,66.00
2022-10-07T08:54:15.898Z,68.70
2022-10-07T08:56:43.430Z,70.70
2022-10-07T08:59:13.386Z,66.40
2022-10-07T09:01:47.041Z,72.80
2022-10-07T09:04:17.142Z,71.40
2022-10-07T09:07:02.668Z,71.10
2022-10-07T09:09:34.724Z,69.00
2022-10-07T09:12:03.335Z,71.60
2022-10-07T09:14:41.515Z,70.50
2022-10-07T09:17:13.239Z,74.30
2022-10-07T09:19:43.811Z,72.50
2022-10-07T09:22:19.616Z,73.30
2022-10-07T09:24:47.441Z,77.60
2022-10-07T09:27:16.293Z,74.40
2022-10-07T09:29:43.436Z,75.90
2022-10-07T09:32:15.269Z,76.20
2022-10-07T09:34:42.165Z,76.20
2022-10-07T09:37:09.094Z,79.40
2022-10-07T09:39:36.153Z,77.30
2022-10-07T09:42:05.411Z,78.80
2022-10-07T09:44:32.529Z,80.10
2022-10-07T09:47:02.405Z,77.10
2022-10-07T09:49:29.387Z,77.40
2022-10-07T09:52:02.471Z,84.40
2022-10-07T09:54:30.655Z,82.10
2022-10-07T09:56:59.662Z,82.60
2022-10-07T09:59:27.632Z,81.50
2022-10-07T10:01:54.615Z,78.50
2022-10-07T10:04:24.959Z,76.50
2022-10-07T10:06:52.889Z,79.70
2022-10-07T10:09:21.940Z,82.00
2022-10-07T10:12:15.295Z,80.10
2022-10-07T10:14:52.970Z,79.70
2022-10-07T10:17:40.144Z,83.20
2022-10-07T10:20:25.901Z,82.40
2022-10-07T10:22:52.824Z,80.80
2022-10-07T10:26:04.803Z,87.00
2022-10-07T10:28:50.526Z,80.60
2022-10-07T10:31:30.267Z,81.80
2022-10-07T10:34:04.683Z,85.70
2022-10-07T10:36:33.226Z,84.30
2022-10-07T10:39:06.277Z,88.70
2022-10-07T10:41:43.319Z,88.80
2022-10-07T10:44:32.341Z,85.50
2022-10-07T10:47:12.654Z,82.50
2022-10-07T10:50:04.507Z,80.60
2022-10-07T10:52:40.668Z,84.10
2022-10-07T10:55:13.684Z,86.30
2022-10-07T10:57:47.532Z,85.90
2022-10-07T11:00:21.832Z,84.40
2022-10-07T11:03:05.834Z,88.50
2022-10-07T11:05:33.423Z,83.60
2022-10-07T11:08:17.336Z,81.70
2022-10-07T11:10:50.819Z,86.60
2022-10-07T11:13:27.499Z,86.80
2022-10-07T11:15:57.281Z,87.10
2022-10-07T11:18:35.273Z,88.60
2022-10-07T11:21:04.049Z,87.50
2022-10-07T11:23:41.751Z,84.50
2022-10-07T11:26:19.323Z,85.20
2022-10-07T11:28:46.687Z,85.60
2022-10-07T11:31:20.208Z,81.50
2022-10-07T11:34:13.648Z,83.20
2022-10-07T11:36:43.695Z,87.90
2022-10-07T11:39:10.703Z,89.90
2022-10-07T11:41:46.654Z,88.30
2022-10-07T11:44:23.837Z,90.10
2022-10-07T11:46:51.875Z,81.20
2022-10-07T11:49:18.989Z,85.50
2022-10-07T11:51:45.868Z,87.00
2022-10-07T11:54:14.992Z,88.30
2022-10-07T11:56:50.687Z,89.30
2022-10-07T11:59:36.738Z,90.10
2022-10-07T12:02:04.132Z,89.20
2022-10-07T12:04:31.052Z,84.90
2022-10-07T12:07:16.759Z,81.80
2022-10-07T12:10:14.995Z,84.70
2022-10-07T12:12:42.688Z,81.00
2022-10-07T12:15:25.395Z,86.60
2022-10-07T12:17:56.631Z,86.70
2022-10-07T12:20:37.364Z,83.40
2022-10-07T12:23:19.455Z,86.20
2022-10-07T12:25:47.891Z,83.50
2022-10-07T12:28:35.142Z,86.40
2022-10-07T12:31:02.060Z,82.40
2022-10-07T12:33:37.660Z,85.20
2022-10-07T12:36:23.883Z,86.00
2022-10-07T12:38:57.522Z,81.90
2022-10-07T12:41:25.636Z,84.80
2022-10-07T12:43:56.050Z,88.60
2022-10-07T12:46:23.707Z,87.80
2022-10-07T12:48:54.831Z,82.50
2022-10-07T12:51:25.251Z,84.30
2022-10-07T12:53:52.629Z,85.70
2022-10-07T12:56:22.000Z,86.00
2022-10-07T12:59:25.985Z,82.20
2022-10-07T13:02:19.335Z,80.90
2022-10-07T13:04:46.952Z,81.80
2022-10-07T13:07:32.850Z,85.20
2022-10-07T13:09:59.718Z,87.70
2022-10-07T13:12:51.398Z,86.40
2022-10-07T13:15:25.371Z,86.60
2022-10-07T13:18:12.652Z,86.60
2022-10-07T13:20:58.336Z,83.90
2022-10-07T13:23:27.518Z,88.00
2022-10-07T13:25:55.894Z,85.10
2022-10-07T13:28:44.900Z,85.10
2022-10-07T13:31:13.825Z,86.40
2022-10-07T13:33:43.284Z,85.60
2022-10-07T13:36:19.447Z,83.10
2022-10-07T13:38:47.328Z,85.50
2022-10-07T13:41:20.264Z,82.90
2022-10-07T13:43:47.677Z,83.10
2022-10-07T13:46:15.298Z,86.80
2022-10-07T13:48:45.427Z,81.80
2022-10-07T13:51:31.621Z,85.30
2022-10-07T13:53:59.658Z,81.10
2022-10-07T13:56:47.739Z,81.80
2022-10-07T13:59:17.909Z,82.20
2022-10-07T14:01:45.791Z,91.80
2022-10-07T14:04:19.013Z,83.40
2022-10-07T14:06:51.077Z,83.60
2022-10-07T14:09:41.273Z,84.80
2022-10-07T14:12:10.146Z,86.20
2022-10-07T14:14:38.630Z,83.60
2022-10-07T14:17:19.547Z,84.80
2022-10-07T14:19:51.059Z,86.90
2022-10-07T14:22:20.971Z,84.50
2022-10-07T14:24:53.509Z,86.50
2022-10-07T14:27:39.842Z,88.00
2022-10-07T14:30:25.475Z,87.50
2022-10-07T14:33:17.805Z,92.20
2022-10-07T14:35:45.636Z,91.10
2022-10-07T14:38:19.259Z,91.50
2022-10-07T14:40:46.133Z,87.90
2022-10-07T14:43:13.213Z,85.40
2022-10-07T14:45:40.148Z,87.80
2022-10-07T14:48:11.809Z,91.40
2022-10-07T14:50:39.777Z,88.60
2022-10-07T14:53:11.955Z,90.10
2022-10-07T14:55:39.130Z,89.30
2022-10-07T14:58:06.152Z,91.00
2022-10-07T15:00:38.688Z,92.10
2022-10-07T15:03:06.546Z,90.00
2022-10-07T15:05:34.021Z,92.00
2022-10-07T15:08:01.482Z,92.90
2022-10-07T15:10:28.486Z,90.10
2022-10-07T15:12:56.261Z,91.30
2022-10-07T15:15:23.116Z,90.80
2022-10-07T15:17:50.089Z,91.70
2022-10-07T15:20:17.480Z,90.10
2022-10-07T15:22:45.438Z,90.50
2022-10-07T15:25:12.764Z,93.40
2022-10-07T15:27:40.110Z,90.70
2022-10-07T15:30:07.398Z,93.70
2022-10-07T15:32:34.608Z,93.60
2022-10-07T15:35:01.707Z,90.60
2022-10-07T15:37:28.682Z,94.10
2022-10-07T15:39:55.857Z,94.60
2022-10-07T15:42:26.625Z,91.80
2022-10-07T15:44:53.830Z,93.70
2022-10-07T15:47:20.887Z,95.70
2022-10-07T15:49:48.166Z,94.50
2022-10-07T15:52:15.112Z,93.80
2022-10-07T15:54:41.966Z,96.70
2022-10-07T15:57:09.433Z,95.40
2022-10-07T15:59:36.372Z,96.40
2022-10-07T16:02:04.372Z,96.10
2022-10-07T16:04:31.460Z,98.10
2022-10-07T16:06:58.540Z,97.50
2022-10-07T16:09:25.517Z,98.30
2022-10-07T16:11:52.502Z,99.50
2022-10-07T16:14:19.411Z,99.10
2022-10-07T16:16:46.356Z,99.50
2022-10-07T16:19:13.245Z,99.80
2022-10-07T16:21:41.325Z,98.80
2022-10-07T16:24:15.892Z,99.60
2022-10-07T16:26:43.347Z,98.30
2022-10-07T16:29:32.885Z,99.80
2022-10-07T16:32:00.033Z,99.90
2022-10-07T16:34:28.293Z,99.90
2022-10-07T16:36:55.982Z,99.90
2022-10-07T16:39:23.199Z,99.90
2022-10-07T16:41:51.902Z,99.90
2022-10-07T16:44:19.572Z,99.90
2022-10-07T16:46:46.967Z,99.90
2022-10-07T16:49:16.197Z,99.90
2022-10-07T16:51:44.895Z,99.90
2022-10-07T16:54:16.419Z,99.90
2022-10-07T16:56:48.214Z,99.90
2022-10-07T16:59:24.760Z,99.90
2022-10-07T17:01:52.824Z,99.90
2022-10-07T17:04:20.168Z,99.90
2022-10-07T17:06:47.346Z,99.90
2022-10-07T17:09:14.750Z,99.90
2022-10-07T17:11:42.125Z,99.90
2022-10-07T17:14:19.048Z,99.90
2022-10-07T17:16:47.440Z,99.90
2022-10-07T17:19:22.149Z,99.90
2022-10-07T17:21:49.435Z,99.90
2022-10-07T17:24:20.526Z,99.90
2022-10-07T17:26:48.110Z,99.90
2022-10-07T17:29:18.375Z,99.90
2022-10-07T17:31:48.390Z,99.90
2022-10-07T17:34:19.458Z,99.90
2022-10-07T17:36:47.987Z,99.90
2022-10-07T17:39:15.428Z,99.90
2022-10-07T17:41:42.484Z,99.90
2022-10-07T17:44:10.323Z,99.90
2022-10-07T17:46:39.406Z,99.90
2022-10-07T17:49:07.356Z,99.90
2022-10-07T17:51:34.835Z,99.90
2022-10-07T17:54:02.480Z,99.90
2022-10-07T17:56:29.925Z,99.90
2022-10-07T17:58:57.277Z,99.90
2022-10-07T18:01:27.275Z,99.90
2022-10-07T18:03:57.612Z,99.90
2022-10-07T18:06:25.303Z,99.90
2022-10-07T18:08:52.341Z,99.90
2022-10-07T18:11:19.269Z,99.90
2022-10-07T18:14:04.890Z,99.90
2022-10-07T18:16:32.844Z,99.90
2022-10-07T18:19:00.093Z,99.90
2022-10-07T18:21:29.941Z,99.90
2022-10-07T18:23:57.700Z,99.90
2022-10-07T18:26:24.971Z,99.90
2022-10-07T18:28:51.913Z,99.90
2022-10-07T18:31:18.884Z,99.90
2022-10-07T18:33:46.447Z,99.90
2022-10-07T18:36:14.863Z,99.90
2022-10-07T18:38:42.534Z,99.90
2022-10-07T18:41:16.614Z,99.90
2022-10-07T18:43:44.253Z,99.90
2022-10-07T18:46:12.781Z,99.90
2022-10-07T18:48:41.758Z,99.90
2022-10-07T18:51:09.780Z,99.90
2022-10-07T18:53:37.362Z,99.90
2022-10-07T18:56:06.002Z,99.90
2022-10-07T18:58:37.192Z,99.90
2022-10-07T19:01:08.380Z,99.90
2022-10-07T19:03:35.376Z,99.90
2022-10-07T19:06:10.032Z,99.90
2022-10-07T19:08:37.161Z,99.90
2022-10-07T19:11:08.106Z,99.90
2022-10-07T19:14:11.011Z,99.90
2022-10-07T19:16:38.166Z,99.90
2022-10-07T19:19:06.695Z,99.90
2022-10-07T19:21:34.360Z,99.90
2022-10-07T19:24:01.908Z,99.90
2022-10-07T19:26:40.351Z,99.90
2022-10-07T19:29:09.339Z,99.90
2022-10-07T19:31:40.622Z,99.90
2022-10-07T19:34:09.349Z,99.90
2022-10-07T19:36:37.569Z,99.90
2022-10-07T19:39:04.666Z,99.90
2022-10-07T19:41:32.993Z,99.90
2022-10-07T19:44:00.330Z,99.90
2022-10-07T19:46:28.506Z,99.90
2022-10-07T19:48:57.008Z,99.90
2022-10-07T19:51:24.543Z,99.90
2022-10-07T19:53:51.604Z,99.90
2022-10-07T19:56:23.105Z,99.90
2022-10-07T19:58:51.140Z,99.90
2022-10-07T20:01:19.278Z,99.90
2022-10-07T20:03:46.217Z,99.90
2022-10-07T20:06:14.259Z,99.90
2022-10-07T20:08:42.229Z,99.90
2022-10-07T20:11:09.797Z,99.90
2022-10-07T20:13:37.206Z,99.90
2022-10-07T20:16:16.369Z,99.90
2022-10-07T20:18:44.133Z,99.90
2022-10-07T20:21:13.212Z,99.90
2022-10-07T20:23:41.284Z,99.90
2022-10-07T20:26:09.175Z,99.90
2022-10-07T20:28:37.884Z,99.90
2022-10-07T20:31:05.732Z,99.90
2022-10-07T20:33:39.535Z,99.90
2022-10-07T20:36:07.178Z,99.90
2022-10-07T20:38:54.544Z,99.90
2022-10-07T20:41:40.554Z,99.90
2022-10-07T20:44:08.065Z,99.90
2022-10-07T20:46:34.965Z,99.90
2022-10-07T20:49:02.070Z,99.90
2022-10-07T20:51:29.673Z,99.90
2022-10-07T20:53:56.550Z,99.90
2022-10-07T20:56:23.388Z,99.90
2022-10-07T20:58:50.357Z,99.90
2022-10-07T21:01:17.342Z,99.90
2022-10-07T21:03:44.985Z,99.90
2022-10-07T21:06:12.022Z,99.90
2022-10-07T21:08:39.400Z,99.90
2022-10-07T21:11:06.542Z,99.90
2022-10-07T21:13:33.512Z,99.90
2022-10-07T21:16:04.137Z,99.90
2022-10-07T21:18:31.461Z,99.90
2022-10-07T21:20:58.689Z,99.90
2022-10-07T21:23:25.898Z,99.90
2022-10-07T21:25:52.739Z,99.90
2022-10-07T21:28:19.946Z,99.90
2022-10-07T21:30:58.993Z,99.90
2022-10-07T21:33:27.391Z,99.90
2022-10-07T21:36:04.936Z,99.90
2022-10-07T21:38:34.793Z,99.90
2022-10-07T21:41:12.087Z,99.90
2022-10-07T21:43:40.017Z,99.90
2022-10-07T21:46:07.151Z,99.90
2022-10-07T21:48:34.271Z,99.90
2022-10-07T21:51:04.624Z,99.90
2022-10-07T21:53:35.565Z,99.90
2022-10-07T21:56:06.083Z,99.90
2022-10-07T21:58:33.525Z,99.90
2022-10-07T22:01:04.778Z,99.90
2022-10-07T22:03:31.845Z,99.90
2022-10-07T22:06:02.634Z,99.90
2022-10-07T22:08:35.509Z,99.90
2022-10-07T22:11:11.639Z,99.90
2022-10-07T22:13:42.596Z,99.90
2022-10-07T22:16:13.579Z,99.90
2022-10-07T22:18:41.359Z,99.90
2022-10-07T22:21:20.594Z,99.90
2022-10-07T22:23:51.930Z,99.90
2022-10-07T22:26:19.808Z,99.90
2022-10-07T22:28:47.038Z,99.90
2022-10-07T22:31:15.144Z,99.90
2022-10-07T22:33:43.005Z,99.90
2022-10-07T22:36:11.153Z,99.90
2022-10-07T22:38:38.359Z,99.90
2022-10-07T22:41:06.314Z,99.90
2022-10-07T22:43:36.532Z,99.90
2022-10-07T22:46:04.025Z,99.90
2022-10-07T22:48:31.503Z,99.90
2022-10-07T22:51:07.253Z,99.90
2022-10-07T22:53:39.762Z,99.90
2022-10-07T22:56:07.993Z,99.90
2022-10-07T22:58:34.827Z,99.90
2022-10-07T23:01:05.264Z,99.90
2022-10-07T23:03:32.262Z,99.90
2022-10-07T23:06:00.193Z,99.90
2022-10-07T23:08:27.076Z,99.90
2022-10-07T23:10:58.609Z,99.90
2022-10-07T23:13:28.402Z,99.90
2022-10-07T23:15:59.950Z,99.90
2022-10-07T23:18:27.569Z,99.90
2022-10-07T23:21:01.089Z,99.90
2022-10-07T23:23:28.391Z,99.90
2022-10-07T23:25:55.309Z,99.90
2022-10-07T23:28:23.740Z,99.90
2022-10-07T23:30:50.743Z,99.90
2022-10-07T23:33:17.967Z,99.90
2022-10-07T23:35:45.338Z,99.90
2022-10-07T23:38:12.239Z,99.90
2022-10-07T23:40:39.180Z,99.90
2022-10-07T23:43:06.297Z,99.90
2022-10-07T23:45:33.712Z,99.90
2022-10-07T23:48:00.595Z,99.90
2022-10-07T23:50:27.934Z,99.90
2022-10-07T23:52:55.076Z,99.90
2022-10-07T23:55:22.008Z,99.90
2022-10-07T23:57:48.875Z,99.90
